sensor_id;sensor_type;location;lat;lon;timestamp;P1;durP1;ratioP1;P2;durP2;ratioP2
78668;SDS011;67984;45.118;20.724;2023-05-10T00:09:16;8.15;;;4.20;;
78668;SDS011;67984;45.118;20.724;2023-05-10T00:19:17;5.40;;;3.70;;
78668;SDS011;67984;45.118;20.724;2023-05-10T00:29:18;4.57;;;3.93;;
78668;SDS011;67984;45.118;20.724;2023-05-10T00:39:18;7.22;;;3.50;;
78668;SDS011;67984;45.118;20.724;2023-05-10T00:49:19;4.18;;;3.03;;
78668;SDS011;67984;45.118;20.724;2023-05-10T00:59:21;10.40;;;4.53;;
78668;SDS011;67984;45.118;20.724;2023-05-10T01:09:22;10.40;;;3.92;;
78668;SDS011;67984;45.118;20.724;2023-05-10T01:19:26;5.72;;;4.15;;
78668;SDS011;67984;45.118;20.724;2023-05-10T01:50:31;5.60;;;4.05;;
78668;SDS011;67984;45.118;20.724;2023-05-10T02:00:34;6.43;;;3.20;;
78668;SDS011;67984;45.118;20.724;2023-05-10T02:10:36;3.63;;;2.90;;
78668;SDS011;67984;45.118;20.724;2023-05-10T02:20:39;4.90;;;3.22;;
78668;SDS011;67984;45.118;20.724;2023-05-10T02:30:40;5.32;;;3.47;;
78668;SDS011;67984;45.118;20.724;2023-05-10T02:40:41;4.15;;;3.42;;
78668;SDS011;67984;45.118;20.724;2023-05-10T02:50:44;5.65;;;3.88;;
78668;SDS011;67984;45.118;20.724;2023-05-10T03:00:46;5.57;;;3.47;;
78668;SDS011;67984;45.118;20.724;2023-05-10T03:11:11;6.80;;;3.67;;
78668;SDS011;67984;45.118;20.724;2023-05-10T03:21:26;5.00;;;3.45;;
78668;SDS011;67984;45.118;20.724;2023-05-10T03:31:30;7.72;;;5.05;;
78668;SDS011;67984;45.118;20.724;2023-05-10T03:41:32;5.25;;;4.22;;
78668;SDS011;67984;45.118;20.724;2023-05-10T03:51:32;5.72;;;3.83;;
78668;SDS011;67984;45.118;20.724;2023-05-10T04:01:33;4.10;;;3.53;;
78668;SDS011;67984;45.118;20.724;2023-05-10T04:11:35;7.22;;;3.72;;
78668;SDS011;67984;45.118;20.724;2023-05-10T04:21:36;6.10;;;4.07;;
78668;SDS011;67984;45.118;20.724;2023-05-10T04:31:36;4.22;;;2.90;;
78668;SDS011;67984;45.118;20.724;2023-05-10T04:41:37;5.43;;;3.47;;
78668;SDS011;67984;45.118;20.724;2023-05-10T04:51:38;6.85;;;3.92;;
78668;SDS011;67984;45.118;20.724;2023-05-10T05:01:40;7.28;;;3.58;;
78668;SDS011;67984;45.118;20.724;2023-05-10T05:11:41;4.10;;;3.70;;
78668;SDS011;67984;45.118;20.724;2023-05-10T05:21:41;5.03;;;3.80;;
78668;SDS011;67984;45.118;20.724;2023-05-10T05:31:42;6.35;;;3.80;;
78668;SDS011;67984;45.118;20.724;2023-05-10T05:41:43;4.33;;;3.93;;
78668;SDS011;67984;45.118;20.724;2023-05-10T05:51:44;4.60;;;3.10;;
78668;SDS011;67984;45.118;20.724;2023-05-10T06:01:45;9.57;;;2.67;;
78668;SDS011;67984;45.118;20.724;2023-05-10T06:11:45;4.40;;;2.37;;
78668;SDS011;67984;45.118;20.724;2023-05-10T06:21:46;5.22;;;3.33;;
78668;SDS011;67984;45.118;20.724;2023-05-10T06:31:47;9.13;;;3.20;;
78668;SDS011;67984;45.118;20.724;2023-05-10T06:41:48;12.52;;;2.72;;
78668;SDS011;67984;45.118;20.724;2023-05-10T06:51:49;3.30;;;2.77;;
78668;SDS011;67984;45.118;20.724;2023-05-10T07:01:50;5.68;;;3.60;;
78668;SDS011;67984;45.118;20.724;2023-05-10T07:11:51;4.15;;;2.95;;
78668;SDS011;67984;45.118;20.724;2023-05-10T07:21:52;10.40;;;3.60;;
78668;SDS011;67984;45.118;20.724;2023-05-10T07:31:52;4.90;;;3.43;;
78668;SDS011;67984;45.118;20.724;2023-05-10T07:41:54;12.80;;;2.63;;
78668;SDS011;67984;45.118;20.724;2023-05-10T07:51:55;10.10;;;3.25;;
78668;SDS011;67984;45.118;20.724;2023-05-10T08:01:56;4.63;;;1.83;;
78668;SDS011;67984;45.118;20.724;2023-05-10T08:11:57;10.82;;;1.30;;
78668;SDS011;67984;45.118;20.724;2023-05-10T08:21:59;3.10;;;1.10;;
78668;SDS011;67984;45.118;20.724;2023-05-10T08:32:00;1.80;;;0.90;;
78668;SDS011;67984;45.118;20.724;2023-05-10T08:42:01;2.63;;;1.75;;
78668;SDS011;67984;45.118;20.724;2023-05-10T08:52:04;8.63;;;1.60;;
78668;SDS011;67984;45.118;20.724;2023-05-10T09:02:08;6.55;;;2.20;;
78668;SDS011;67984;45.118;20.724;2023-05-10T09:12:12;2.97;;;1.35;;
78668;SDS011;67984;45.118;20.724;2023-05-10T09:22:15;5.40;;;1.63;;
78668;SDS011;67984;45.118;20.724;2023-05-10T09:32:17;4.50;;;1.30;;
78668;SDS011;67984;45.118;20.724;2023-05-10T09:42:18;3.83;;;1.33;;
78668;SDS011;67984;45.118;20.724;2023-05-10T09:52:19;8.57;;;1.80;;
78668;SDS011;67984;45.118;20.724;2023-05-10T10:02:19;4.20;;;1.23;;
78668;SDS011;67984;45.118;20.724;2023-05-10T10:12:20;9.45;;;1.60;;
78668;SDS011;67984;45.118;20.724;2023-05-10T10:22:22;7.28;;;1.42;;
78668;SDS011;67984;45.118;20.724;2023-05-10T10:32:38;6.32;;;1.05;;
78668;SDS011;67984;45.118;20.724;2023-05-10T10:42:54;7.00;;;1.10;;
78668;SDS011;67984;45.118;20.724;2023-05-10T10:52:56;11.68;;;1.80;;
78668;SDS011;67984;45.118;20.724;2023-05-10T11:03:14;6.20;;;0.90;;
78668;SDS011;67984;45.118;20.724;2023-05-10T11:33:49;11.57;;;1.92;;
78668;SDS011;67984;45.118;20.724;2023-05-10T11:53:54;6.68;;;1.27;;
78668;SDS011;67984;45.118;20.724;2023-05-10T12:03:57;8.80;;;2.55;;
78668;SDS011;67984;45.118;20.724;2023-05-10T12:13:59;4.63;;;1.35;;
78668;SDS011;67984;45.118;20.724;2023-05-10T12:24:05;11.45;;;1.38;;
78668;SDS011;67984;45.118;20.724;2023-05-10T12:34:05;6.00;;;0.60;;
78668;SDS011;67984;45.118;20.724;2023-05-10T12:44:08;5.43;;;1.02;;
78668;SDS011;67984;45.118;20.724;2023-05-10T12:54:09;8.83;;;2.50;;
78668;SDS011;67984;45.118;20.724;2023-05-10T13:04:09;6.95;;;1.23;;
78668;SDS011;67984;45.118;20.724;2023-05-10T13:14:10;3.97;;;0.93;;
78668;SDS011;67984;45.118;20.724;2023-05-10T13:24:11;0.83;;;0.83;;
78668;SDS011;67984;45.118;20.724;2023-05-10T13:34:13;8.65;;;1.00;;
78668;SDS011;67984;45.118;20.724;2023-05-10T13:44:14;12.90;;;0.87;;
78668;SDS011;67984;45.118;20.724;2023-05-10T13:54:15;6.70;;;1.10;;
78668;SDS011;67984;45.118;20.724;2023-05-10T14:04:19;2.45;;;0.90;;
78668;SDS011;67984;45.118;20.724;2023-05-10T14:14:20;4.93;;;0.68;;
78668;SDS011;67984;45.118;20.724;2023-05-10T14:24:21;8.67;;;0.90;;
78668;SDS011;67984;45.118;20.724;2023-05-10T14:34:21;1.40;;;0.80;;
78668;SDS011;67984;45.118;20.724;2023-05-10T14:44:22;5.40;;;1.27;;
78668;SDS011;67984;45.118;20.724;2023-05-10T14:54:24;2.67;;;0.60;;
78668;SDS011;67984;45.118;20.724;2023-05-10T15:04:24;4.60;;;0.50;;
78668;SDS011;67984;45.118;20.724;2023-05-10T15:14:25;8.57;;;1.43;;
78668;SDS011;67984;45.118;20.724;2023-05-10T15:24:26;6.07;;;0.63;;
78668;SDS011;67984;45.118;20.724;2023-05-10T15:34:26;6.05;;;0.98;;
78668;SDS011;67984;45.118;20.724;2023-05-10T15:44:28;3.03;;;1.33;;
78668;SDS011;67984;45.118;20.724;2023-05-10T15:54:29;5.60;;;1.05;;
78668;SDS011;67984;45.118;20.724;2023-05-10T16:04:29;6.70;;;1.30;;
78668;SDS011;67984;45.118;20.724;2023-05-10T16:14:30;6.83;;;3.10;;
78668;SDS011;67984;45.118;20.724;2023-05-10T16:24:31;5.70;;;1.20;;
78668;SDS011;67984;45.118;20.724;2023-05-10T16:34:31;1.10;;;1.00;;
78668;SDS011;67984;45.118;20.724;2023-05-10T16:44:32;5.63;;;1.30;;
78668;SDS011;67984;45.118;20.724;2023-05-10T16:54:33;3.35;;;1.02;;
78668;SDS011;67984;45.118;20.724;2023-05-10T17:04:34;3.67;;;1.30;;
78668;SDS011;67984;45.118;20.724;2023-05-10T17:14:37;1.63;;;1.17;;
78668;SDS011;67984;45.118;20.724;2023-05-10T17:24:39;4.70;;;1.58;;
78668;SDS011;67984;45.118;20.724;2023-05-10T17:34:39;4.13;;;2.30;;
78668;SDS011;67984;45.118;20.724;2023-05-10T17:44:40;3.70;;;2.30;;
78668;SDS011;67984;45.118;20.724;2023-05-10T17:54:41;2.93;;;1.93;;
78668;SDS011;67984;45.118;20.724;2023-05-10T18:04:42;8.05;;;3.05;;
78668;SDS011;67984;45.118;20.724;2023-05-10T18:14:42;9.03;;;3.90;;
78668;SDS011;67984;45.118;20.724;2023-05-10T18:24:43;7.63;;;3.83;;
78668;SDS011;67984;45.118;20.724;2023-05-10T18:34:46;6.35;;;3.58;;
78668;SDS011;67984;45.118;20.724;2023-05-10T18:44:46;9.23;;;4.70;;
78668;SDS011;67984;45.118;20.724;2023-05-10T18:54:48;4.80;;;2.50;;
78668;SDS011;67984;45.118;20.724;2023-05-10T19:04:49;6.90;;;2.97;;
78668;SDS011;67984;45.118;20.724;2023-05-10T19:14:50;4.23;;;2.50;;
78668;SDS011;67984;45.118;20.724;2023-05-10T19:24:50;5.60;;;2.67;;
78668;SDS011;67984;45.118;20.724;2023-05-10T19:34:51;6.90;;;2.00;;
78668;SDS011;67984;45.118;20.724;2023-05-10T19:44:52;2.17;;;1.20;;
78668;SDS011;67984;45.118;20.724;2023-05-10T19:54:53;3.10;;;1.60;;
78668;SDS011;67984;45.118;20.724;2023-05-10T20:04:53;5.00;;;1.80;;
78668;SDS011;67984;45.118;20.724;2023-05-10T20:14:54;5.10;;;2.37;;
78668;SDS011;67984;45.118;20.724;2023-05-10T20:24:55;21.27;;;5.63;;
78668;SDS011;67984;45.118;20.724;2023-05-10T20:34:57;2.88;;;1.90;;
78668;SDS011;67984;45.118;20.724;2023-05-10T20:44:58;3.65;;;1.33;;
78668;SDS011;67984;45.118;20.724;2023-05-10T20:54:59;5.50;;;1.73;;
78668;SDS011;67984;45.118;20.724;2023-05-10T21:05:00;3.33;;;1.67;;
78668;SDS011;67984;45.118;20.724;2023-05-10T21:15:01;4.27;;;2.70;;
78668;SDS011;67984;45.118;20.724;2023-05-10T21:25:02;3.38;;;2.20;;
78668;SDS011;67984;45.118;20.724;2023-05-10T21:35:03;3.95;;;1.30;;
78668;SDS011;67984;45.118;20.724;2023-05-10T21:45:05;3.60;;;1.85;;
78668;SDS011;67984;45.118;20.724;2023-05-10T21:55:06;1.98;;;1.45;;
78668;SDS011;67984;45.118;20.724;2023-05-10T22:05:07;3.53;;;1.38;;
78668;SDS011;67984;45.118;20.724;2023-05-10T22:15:08;2.95;;;1.52;;
78668;SDS011;67984;45.118;20.724;2023-05-10T22:25:09;3.35;;;0.93;;
78668;SDS011;67984;45.118;20.724;2023-05-10T22:35:10;4.87;;;1.40;;
78668;SDS011;67984;45.118;20.724;2023-05-10T22:45:11;2.60;;;1.52;;
78668;SDS011;67984;45.118;20.724;2023-05-10T22:55:12;2.63;;;1.93;;
78668;SDS011;67984;45.118;20.724;2023-05-10T23:05:12;1.97;;;1.53;;
78668;SDS011;67984;45.118;20.724;2023-05-10T23:15:13;2.83;;;1.93;;
78668;SDS011;67984;45.118;20.724;2023-05-10T23:25:14;2.27;;;1.37;;
78668;SDS011;67984;45.118;20.724;2023-05-10T23:35:15;3.03;;;2.23;;
78668;SDS011;67984;45.118;20.724;2023-05-10T23:45:15;1.67;;;1.07;;
78668;SDS011;67984;45.118;20.724;2023-05-10T23:55:16;4.03;;;2.05;;
